Time;durP1;ratioP1;P1;durP2;ratioP2;P2;SDS_P1;SDS_P2;PMS_P1;PMS_P2;Temp;Humidity;BMP_temperature;BMP_pressure;BME280_temperature;BME280_humidity;BME280_pressure;Samples;Min_cycle;Max_cycle;Signal;HPM_P1;HPM_P2
2023/06/21 00:00:24;;;;;;;9.57;6.75;;;;;;;20.10;88.05;100353.03;4993560;28;20121;-74
2023/06/21 00:03:27;;;;;;;11.43;6.80;;;;;;;19.98;88.32;100357.66;4993346;28;20060;-74
2023/06/21 00:06:31;;;;;;;8.00;6.55;;;;;;;19.88;89.05;100364.00;4993450;28;20053;-73
2023/06/21 00:09:34;;;;;;;9.48;6.53;;;;;;;19.82;89.39;100367.22;4981366;28;20570;-74
2023/06/21 00:12:37;;;;;;;9.52;6.90;;;;;;;19.78;88.84;100371.13;4993480;28;20474;-74
2023/06/21 00:15:40;;;;;;;9.45;6.93;;;;;;;19.61;89.58;100370.00;4993361;28;20077;-73
2023/06/21 00:18:43;;;;;;;7.55;6.45;;;;;;;19.68;88.38;100374.63;4993716;28;20077;-73
2023/06/21 00:21:47;;;;;;;9.00;7.38;;;;;;;19.65;88.96;100377.56;4993454;28;20053;-73
2023/06/21 00:24:51;;;;;;;8.30;6.18;;;;;;;19.50;89.55;100386.94;4993235;28;20107;-73
2023/06/21 00:27:54;;;;;;;8.40;5.70;;;;;;;19.67;87.18;100390.69;4993368;28;20080;-74
2023/06/21 00:30:58;;;;;;;9.75;5.80;;;;;;;19.73;85.95;100400.75;4993127;28;20137;-73
2023/06/21 00:34:01;;;;;;;13.68;6.43;;;;;;;19.65;86.83;100390.00;4993073;28;20415;-73
2023/06/21 00:37:05;;;;;;;10.07;6.07;;;;;;;19.41;87.93;100396.56;4992928;28;20080;-73
2023/06/21 00:40:14;;;;;;;9.85;5.75;;;;;;;19.34;88.39;100389.31;4993088;28;20045;-73
2023/06/21 00:43:17;;;;;;;6.47;5.35;;;;;;;19.24;88.81;100400.75;4969846;28;20480;-73
2023/06/21 00:46:22;;;;;;;11.23;6.35;;;;;;;19.18;89.30;100411.91;4993322;28;20118;-73
2023/06/21 00:49:27;;;;;;;7.25;6.07;;;;;;;19.14;89.30;100407.84;4992944;28;20046;-73
2023/06/21 00:52:31;;;;;;;8.45;6.00;;;;;;;19.13;89.21;100413.28;4992983;28;20100;-73
2023/06/21 00:55:36;;;;;;;9.52;6.82;;;;;;;19.19;88.92;100410.91;4980899;28;20105;-73
2023/06/21 00:58:39;;;;;;;10.05;6.05;;;;;;;19.05;89.64;100401.56;4992972;28;20133;-73
2023/06/21 01:01:42;;;;;;;10.23;6.50;;;;;;;19.14;89.10;100413.13;4992820;28;20046;-74
2023/06/21 01:04:49;;;;;;;10.20;6.25;;;;;;;18.97;89.39;100408.53;4991150;28;20542;-74
2023/06/21 01:08:19;;;;;;;9.38;6.97;;;;;;;19.03;89.85;100413.28;4992899;28;20049;-74
2023/06/21 01:11:30;;;;;;;8.07;5.53;;;;;;;18.99;89.67;100425.97;4993036;28;20455;-74
2023/06/21 01:15:01;;;;;;;8.70;6.32;;;;;;;18.94;89.29;100440.59;4980667;28;20097;-76
2023/06/21 01:18:09;;;;;;;10.90;6.70;;;;;;;18.86;89.36;100438.63;4980783;28;20076;-76
2023/06/21 01:21:19;;;;;;;7.30;5.90;;;;;;;18.83;89.56;100438.06;4992748;28;20373;-75
2023/06/21 01:24:54;;;;;;;15.80;6.82;;;;;;;18.81;88.87;100430.25;4992676;28;20045;-75
2023/06/21 01:28:28;;;;;;;11.90;6.30;;;;;;;18.81;88.75;100436.38;4992699;28;20073;-75
2023/06/21 01:31:32;;;;;;;7.38;5.63;;;;;;;18.96;87.77;100438.66;4993994;28;20045;-75
2023/06/21 01:34:36;;;;;;;9.90;6.25;;;;;;;18.81;88.64;100436.38;4996122;28;20100;-78
2023/06/21 01:37:42;;;;;;;13.05;6.32;;;;;;;18.81;89.17;100446.97;4983929;28;20402;-75
2023/06/21 01:40:45;;;;;;;11.20;6.70;;;;;;;18.73;90.08;100451.25;4984032;28;20041;-75
2023/06/21 01:43:50;;;;;;;8.80;5.90;;;;;;;18.70;90.21;100443.56;4996054;28;20044;-75
2023/06/21 01:46:55;;;;;;;8.30;5.85;;;;;;;18.66;90.29;100442.97;4983896;28;20121;-75
2023/06/21 01:49:59;;;;;;;13.75;6.60;;;;;;;18.62;90.53;100431.00;4996007;28;20036;-74
2023/06/21 01:53:05;;;;;;;10.07;6.10;;;;;;;18.64;90.20;100433.53;4983204;28;20145;-74
2023/06/21 01:56:14;;;;;;;9.27;6.07;;;;;;;18.65;90.17;100445.78;4995991;28;20112;-75
2023/06/21 01:59:18;;;;;;;11.05;6.32;;;;;;;18.69;89.50;100448.00;4995751;28;20045;-75
2023/06/21 02:02:22;;;;;;;12.60;6.65;;;;;;;18.71;90.21;100450.53;4983492;28;20046;-74
2023/06/21 02:05:27;;;;;;;8.48;6.38;;;;;;;18.70;90.02;100455.00;4983517;28;20104;-74
2023/06/21 02:08:33;;;;;;;8.15;5.97;;;;;;;18.73;90.23;100457.41;4983463;28;20045;-74
2023/06/21 02:11:38;;;;;;;8.70;6.85;;;;;;;18.69;90.34;100458.59;4983568;28;20117;-75
2023/06/21 02:14:42;;;;;;;12.73;7.05;;;;;;;18.70;90.25;100460.31;4995528;28;20053;-75
2023/06/21 02:17:49;;;;;;;11.30;6.53;;;;;;;18.68;90.19;100461.41;4983349;28;20117;-75
2023/06/21 02:20:53;;;;;;;11.18;6.95;;;;;;;18.70;90.04;100464.78;4995364;28;20460;-74
2023/06/21 02:23:56;;;;;;;11.55;8.18;;;;;;;18.65;90.83;100459.84;4971926;28;20048;-75
2023/06/21 02:27:00;;;;;;;10.30;7.75;;;;;;;18.85;89.75;100471.38;4995193;28;20110;-75
2023/06/21 02:30:05;;;;;;;14.50;7.57;;;;;;;18.79;89.10;100461.31;4995187;28;20080;-74
2023/06/21 02:33:08;;;;;;;11.10;7.57;;;;;;;18.61;89.45;100450.50;4995109;28;20092;-75
2023/06/21 02:36:11;;;;;;;8.38;6.82;;;;;;;18.62;89.53;100467.22;4994939;28;20085;-74
2023/06/21 02:39:14;;;;;;;14.85;7.00;;;;;;;18.65;88.96;100469.63;4994869;28;20096;-73
2023/06/21 02:42:18;;;;;;;15.15;7.18;;;;;;;18.66;89.82;100472.13;4994149;28;20184;-73
2023/06/21 02:45:21;;;;;;;19.30;7.43;;;;;;;18.61;89.96;100477.00;4983038;28;20133;-73
2023/06/21 02:48:24;;;;;;;7.88;6.85;;;;;;;18.62;89.89;100483.13;4994807;28;20064;-74
2023/06/21 02:51:28;;;;;;;11.82;7.78;;;;;;;18.63;90.78;100490.09;4994976;28;20530;-74
2023/06/21 02:54:31;;;;;;;12.50;8.35;;;;;;;18.63;91.13;100475.03;4994536;28;20065;-74
2023/06/21 02:57:36;;;;;;;15.07;8.85;;;;;;;18.68;91.18;100480.78;4994744;28;20547;-74
2023/06/21 03:00:41;;;;;;;13.15;9.75;;;;;;;18.49;92.27;100476.22;4982274;28;20109;-74
2023/06/21 03:04:09;;;;;;;17.95;9.90;;;;;;;18.56;92.08;100484.47;4993274;28;20095;-74
2023/06/21 03:07:12;;;;;;;15.93;9.10;;;;;;;18.56;91.86;100493.25;4993557;28;20087;-75
2023/06/21 03:10:16;;;;;;;12.27;9.25;;;;;;;18.62;91.74;100504.31;4994314;28;20541;-75
2023/06/21 03:13:19;;;;;;;13.98;9.70;;;;;;;18.70;91.28;100513.28;4994432;28;20045;-75
2023/06/21 03:16:23;;;;;;;12.02;9.45;;;;;;;18.50;92.69;100514.13;4982469;28;20121;-75
2023/06/21 03:19:26;;;;;;;13.20;9.40;;;;;;;18.45;93.43;100519.00;4982146;28;20144;-75
2023/06/21 03:22:30;;;;;;;18.67;10.13;;;;;;;18.46;93.64;100525.97;4982050;28;20049;-75
2023/06/21 03:25:33;;;;;;;15.55;9.60;;;;;;;18.47;92.73;100533.75;4982133;28;20048;-74
2023/06/21 03:28:37;;;;;;;13.65;8.73;;;;;;;18.47;92.62;100540.88;4982068;28;20072;-74
2023/06/21 03:31:42;;;;;;;10.73;9.10;;;;;;;18.43;93.14;100547.41;4971032;28;20514;-75
2023/06/21 03:34:46;;;;;;;16.98;9.85;;;;;;;18.55;92.49;100549.00;4981881;28;20070;-75
2023/06/21 03:38:21;;;;;;;20.77;10.40;;;;;;;18.51;92.75;100548.44;4981501;28;20061;-74
2023/06/21 03:41:24;;;;;;;18.15;9.60;;;;;;;18.41;92.79;100544.03;4979788;28;20037;-74
2023/06/21 03:44:29;;;;;;;18.42;8.98;;;;;;;18.46;91.87;100547.16;4979723;28;20045;-75
2023/06/21 03:48:20;;;;;;;12.07;7.47;;;;;;;18.30;92.11;100553.72;4981552;28;20069;-73
2023/06/21 03:51:23;;;;;;;11.85;8.40;;;;;;;18.25;92.15;100550.66;4992472;28;20290;-75
2023/06/21 03:54:28;;;;;;;9.88;8.35;;;;;;;18.39;91.47;100551.28;4979345;28;20104;-74
2023/06/21 03:57:34;;;;;;;13.20;8.75;;;;;;;18.23;92.31;100554.38;4980073;28;20092;-77
2023/06/21 04:00:38;;;;;;;10.18;7.88;;;;;;;18.14;92.61;100553.34;4980683;28;20166;-75
2023/06/21 04:03:41;;;;;;;12.43;7.35;;;;;;;18.21;91.86;100535.97;4992498;28;20069;-79
2023/06/21 04:06:44;;;;;;;10.57;7.93;;;;;;;18.05;93.03;100541.72;4980860;28;20395;-76
2023/06/21 04:09:48;;;;;;;14.48;8.32;;;;;;;18.11;92.29;100543.00;4992028;28;20097;-74
2023/06/21 04:12:51;;;;;;;12.93;8.65;;;;;;;18.17;91.57;100539.03;4991878;28;20173;-73
2023/06/21 04:15:55;;;;;;;10.57;8.43;;;;;;;18.20;91.16;100547.53;4992157;28;20081;-72
2023/06/21 04:19:00;;;;;;;13.02;7.95;;;;;;;18.10;91.88;100557.22;4981405;28;20048;-74
2023/06/21 04:22:05;;;;;;;8.77;7.07;;;;;;;18.25;90.33;100544.50;4981054;28;20041;-79
2023/06/21 04:25:09;;;;;;;7.38;6.25;;;;;;;18.25;89.92;100555.06;4981012;28;20045;-75
2023/06/21 04:28:12;;;;;;;9.48;6.18;;;;;;;18.23;89.63;100557.88;4993089;28;20097;-73
2023/06/21 04:31:16;;;;;;;10.40;6.15;;;;;;;18.19;88.96;100574.13;4981166;28;20057;-74
2023/06/21 04:34:20;;;;;;;11.30;5.70;;;;;;;18.09;89.20;100572.25;4993311;28;20038;-79
2023/06/21 04:37:24;;;;;;;9.07;6.35;;;;;;;18.18;89.81;100590.97;4993035;28;20050;-76
2023/06/21 04:40:27;;;;;;;9.60;6.28;;;;;;;18.21;89.34;100602.13;4992989;28;20531;-71
2023/06/21 04:43:30;;;;;;;11.95;6.20;;;;;;;18.34;88.29;100608.09;4993022;28;20113;-72
2023/06/21 04:46:35;;;;;;;12.15;5.82;;;;;;;18.40;88.16;100605.91;4990215;28;20511;-73
2023/06/21 04:49:39;;;;;;;10.77;5.60;;;;;;;18.58;87.07;100607.84;4990927;28;20128;-72
2023/06/21 04:52:48;;;;;;;13.50;5.68;;;;;;;18.69;86.81;100614.03;4990882;28;20420;-73
2023/06/21 04:55:52;;;;;;;11.90;6.57;;;;;;;18.73;87.32;100619.00;4978169;28;20056;-75
2023/06/21 04:58:55;;;;;;;12.77;6.88;;;;;;;18.51;88.72;100604.03;4992030;28;20049;-77
2023/06/21 05:01:58;;;;;;;12.45;6.75;;;;;;;18.38;89.83;100607.84;4992840;28;20100;-75
2023/06/21 05:05:02;;;;;;;12.60;5.95;;;;;;;18.48;89.34;100608.75;4992602;28;20134;-78
2023/06/21 05:08:06;;;;;;;11.48;5.72;;;;;;;18.55;88.91;100599.31;4996471;28;20045;-73
2023/06/21 05:11:09;;;;;;;12.38;5.90;;;;;;;18.56;89.47;100612.41;4996517;28;20084;-74
2023/06/21 05:14:12;;;;;;;10.38;6.13;;;;;;;18.53;89.67;100619.78;4995830;28;20075;-73
2023/06/21 05:17:16;;;;;;;9.35;5.60;;;;;;;18.56;88.19;100628.31;4996562;28;20066;-76
2023/06/21 05:20:22;;;;;;;13.70;6.03;;;;;;;18.60;88.83;100626.25;4996245;28;20037;-75
2023/06/21 05:23:25;;;;;;;12.27;6.18;;;;;;;18.56;89.11;100622.19;4995566;28;20057;-73
2023/06/21 05:26:29;;;;;;;12.70;6.38;;;;;;;18.56;89.03;100622.19;4996146;28;20054;-74
2023/06/21 05:29:34;;;;;;;7.75;4.97;;;;;;;18.67;88.21;100614.19;4995585;28;20048;-73
2023/06/21 05:32:37;;;;;;;19.38;7.07;;;;;;;18.84;87.61;100617.22;4995901;28;20053;-73
2023/06/21 05:35:41;;;;;;;11.38;6.00;;;;;;;18.90;87.50;100624.66;4994751;28;20045;-73
2023/06/21 05:38:44;;;;;;;11.48;5.93;;;;;;;19.00;87.27;100625.53;4995867;28;20045;-72
2023/06/21 05:53:12;;;;;;;7.68;6.47;;;;;;;19.43;86.96;100643.00;5109266;27;20396;-69
2023/06/21 06:00:50;;;;;;;10.95;6.05;;;;;;;19.80;84.50;100634.50;5107636;28;20059;-68
2023/06/21 06:03:53;;;;;;;9.60;5.88;;;;;;;19.77;84.88;100630.28;5108900;28;20102;-69
2023/06/21 06:06:56;;;;;;;7.47;6.22;;;;;;;19.88;85.62;100632.00;5109736;28;20117;-69
2023/06/21 06:10:00;;;;;;;9.88;6.20;;;;;;;19.91;85.18;100637.00;5110099;28;20058;-69
2023/06/21 06:13:03;;;;;;;10.05;5.72;;;;;;;20.12;84.35;100639.53;5109992;28;20449;-69
2023/06/21 06:16:06;;;;;;;11.32;6.85;;;;;;;20.18;84.46;100639.81;5109858;28;20062;-69
2023/06/21 06:19:10;;;;;;;7.50;5.35;;;;;;;20.24;83.65;100653.53;5109686;28;20093;-69
2023/06/21 06:25:22;;;;;;;15.82;6.25;;;;;;;20.23;83.76;100649.19;4837366;27;20057;-69
2023/06/21 06:38:58;;;;;;;8.00;5.05;;;;;;;20.05;85.77;100659.66;5109314;27;20390;-73
2023/06/21 06:42:02;;;;;;;6.13;4.70;;;;;;;20.17;85.46;100663.88;5109555;28;20046;-73
2023/06/21 06:45:07;;;;;;;8.98;5.10;;;;;;;20.26;85.60;100667.50;5108667;28;20054;-73
2023/06/21 06:48:10;;;;;;;7.80;5.25;;;;;;;20.14;85.67;100667.63;5109196;28;20063;-73
2023/06/21 06:51:14;;;;;;;11.07;5.18;;;;;;;20.35;85.00;100658.69;5109609;28;20131;-73
2023/06/21 06:54:17;;;;;;;9.25;5.57;;;;;;;20.53;84.75;100662.34;5109707;28;20093;-73
2023/06/21 06:57:22;;;;;;;8.90;4.90;;;;;;;20.70;83.75;100665.28;5109091;28;20100;-73
2023/06/21 07:00:25;;;;;;;10.52;5.40;;;;;;;20.87;83.76;100675.19;5109813;28;20101;-73
2023/06/21 07:03:28;;;;;;;7.50;5.60;;;;;;;20.65;84.90;100674.50;5109488;28;20527;-73
2023/06/21 07:06:31;;;;;;;10.50;5.20;;;;;;;20.88;83.89;100664.41;5108798;28;20120;-73
2023/06/21 07:09:37;;;;;;;7.22;5.97;;;;;;;20.98;85.32;100675.00;5109476;28;20054;-73
2023/06/21 07:12:40;;;;;;;9.82;5.70;;;;;;;21.13;83.54;100673.56;5109342;28;20503;-73
2023/06/21 07:15:44;;;;;;;10.15;6.35;;;;;;;21.18;79.89;100662.47;5109247;28;20123;-73
2023/06/21 07:18:46;;;;;;;8.48;5.88;;;;;;;21.28;78.25;100660.66;5109405;28;20043;-73
2023/06/21 07:21:49;;;;;;;11.38;5.82;;;;;;;21.44;76.43;100668.03;5109183;28;20080;-73
2023/06/21 07:24:53;;;;;;;8.57;5.63;;;;;;;21.50;75.64;100664.75;5109134;28;20104;-73
2023/06/21 07:27:56;;;;;;;8.05;6.78;;;;;;;21.63;75.27;100664.41;5108981;28;20039;-73
2023/06/21 07:31:00;;;;;;;9.98;6.38;;;;;;;21.64;75.58;100674.09;5088578;28;20416;-73
2023/06/21 07:34:03;;;;;;;11.82;6.05;;;;;;;21.65;74.57;100682.91;5088477;28;20043;-74
2023/06/21 07:37:07;;;;;;;8.73;5.72;;;;;;;21.69;74.44;100685.09;5088469;28;20106;-73
2023/06/21 07:40:11;;;;;;;10.75;5.85;;;;;;;21.65;74.10;100682.91;5074625;28;20050;-73
2023/06/21 07:43:14;;;;;;;8.85;5.30;;;;;;;21.72;74.42;100679.50;5074857;28;20043;-73
2023/06/21 07:46:17;;;;;;;7.53;5.72;;;;;;;21.76;74.26;100685.34;5074729;28;20137;-73
2023/06/21 07:49:21;;;;;;;9.35;4.80;;;;;;;21.73;74.01;100678.53;5073489;28;20128;-73
2023/06/21 07:52:24;;;;;;;9.85;5.60;;;;;;;21.80;73.86;100681.41;5074725;28;20120;-73
2023/06/21 07:55:27;;;;;;;7.32;5.03;;;;;;;21.82;73.46;100679.44;5074570;28;20043;-73
2023/06/21 07:58:31;;;;;;;7.35;5.55;;;;;;;21.91;73.26;100678.53;5074545;28;20040;-73
2023/06/21 08:01:35;;;;;;;8.27;5.15;;;;;;;22.02;72.98;100675.69;5074884;28;20051;-73
2023/06/21 08:04:38;;;;;;;8.27;5.05;;;;;;;22.09;72.02;100675.06;5074528;28;20121;-73
2023/06/21 08:07:42;;;;;;;7.75;5.45;;;;;;;22.13;71.85;100668.44;5074416;28;20042;-74
2023/06/21 08:10:46;;;;;;;6.75;4.65;;;;;;;22.26;72.20;100669.78;5074500;28;20052;-74
2023/06/21 08:13:49;;;;;;;8.50;5.03;;;;;;;22.32;71.63;100654.19;5074355;28;20066;-74
2023/06/21 08:16:52;;;;;;;7.85;4.22;;;;;;;22.47;70.95;100663.31;5074309;28;20043;-73
2023/06/21 08:19:56;;;;;;;6.03;4.78;;;;;;;22.54;68.95;100658.19;5074536;28;20055;-73
2023/06/21 08:22:59;;;;;;;7.03;5.25;;;;;;;22.61;69.36;100659.25;5074423;28;20131;-73
2023/06/21 08:26:03;;;;;;;8.57;5.30;;;;;;;22.74;68.41;100657.84;5073720;28;20055;-73
2023/06/21 08:29:09;;;;;;;5.85;4.13;;;;;;;22.75;67.66;100653.38;5074045;28;20044;-73
2023/06/21 08:32:19;;;;;;;8.10;4.50;;;;;;;22.84;67.15;100649.72;5074045;28;20141;-73
2023/06/21 08:35:26;;;;;;;5.53;4.28;;;;;;;22.83;67.23;100658.72;5075513;28;20085;-74
2023/06/21 08:38:39;;;;;;;6.05;4.50;;;;;;;22.82;66.83;100662.41;5073810;28;20039;-73
2023/06/21 08:41:43;;;;;;;7.10;5.07;;;;;;;22.82;66.91;100651.75;5074225;28;20398;-74
2023/06/21 08:44:46;;;;;;;7.95;4.32;;;;;;;22.73;65.64;100652.66;5073893;28;20109;-73
2023/06/21 08:47:53;;;;;;;6.68;4.25;;;;;;;22.75;66.73;100648.88;5074267;28;20099;-73
2023/06/21 08:50:58;;;;;;;5.95;4.32;;;;;;;22.78;67.20;100655.69;5072769;28;20082;-73
2023/06/21 08:54:09;;;;;;;5.93;4.55;;;;;;;22.78;66.73;100650.34;5073616;28;20562;-73
2023/06/21 08:57:23;;;;;;;8.50;4.15;;;;;;;22.90;66.22;100651.78;5073532;28;20047;-74
2023/06/21 09:00:36;;;;;;;5.75;4.38;;;;;;;23.02;65.80;100648.88;5073436;28;20586;-73
2023/06/21 09:03:52;;;;;;;7.03;4.88;;;;;;;23.06;65.17;100652.91;5073423;28;20097;-74
2023/06/21 09:06:56;;;;;;;4.82;3.95;;;;;;;23.27;64.19;100661.34;5073369;28;20090;-73
2023/06/21 09:10:01;;;;;;;6.60;4.90;;;;;;;23.31;63.35;100668.03;5072138;28;20105;-74
2023/06/21 09:13:06;;;;;;;8.13;4.65;;;;;;;23.43;63.05;100665.94;5072409;28;20413;-73
2023/06/21 09:16:12;;;;;;;6.38;4.40;;;;;;;23.49;62.27;100675.13;5072982;28;20135;-73
2023/06/21 09:19:15;;;;;;;6.97;4.70;;;;;;;23.56;61.81;100681.50;5073279;28;20054;-73
2023/06/21 09:22:19;;;;;;;8.35;4.90;;;;;;;23.80;60.80;100684.28;5073145;28;20047;-74
2023/06/21 09:25:22;;;;;;;6.90;4.88;;;;;;;23.83;59.66;100678.59;5073940;28;20070;-73
2023/06/21 09:28:25;;;;;;;6.88;5.53;;;;;;;23.86;59.68;100672.94;5073480;28;20035;-73
2023/06/21 09:31:29;;;;;;;8.18;5.35;;;;;;;23.94;59.80;100680.16;5071512;28;20421;-73
2023/06/21 09:34:32;;;;;;;6.15;4.88;;;;;;;24.10;58.92;100674.00;5072770;28;20063;-73
2023/06/21 09:37:37;;;;;;;8.10;5.78;;;;;;;24.14;58.51;100675.34;5072937;28;20133;-73
2023/06/21 09:40:42;;;;;;;7.63;5.05;;;;;;;24.13;58.39;100671.00;5072848;28;20087;-73
2023/06/21 09:43:46;;;;;;;7.78;4.43;;;;;;;24.27;58.65;100669.50;5072682;28;20044;-73
2023/06/21 09:46:58;;;;;;;5.68;4.03;;;;;;;24.39;58.71;100673.53;5072537;28;20064;-73
2023/06/21 09:50:05;;;;;;;9.25;4.97;;;;;;;24.39;56.77;100683.41;5072574;28;20075;-73
2023/06/21 09:53:11;;;;;;;7.03;4.18;;;;;;;24.25;56.80;100674.19;5072641;28;20047;-74
2023/06/21 09:56:18;;;;;;;6.97;5.10;;;;;;;24.32;57.07;100685.91;5071679;28;20047;-74
2023/06/21 09:59:22;;;;;;;7.90;4.75;;;;;;;24.46;55.82;100693.28;5072802;28;20051;-74
2023/06/21 10:02:27;;;;;;;4.75;4.15;;;;;;;24.46;54.44;100695.94;5072256;28;20102;-73
2023/06/21 10:05:30;;;;;;;5.65;5.05;;;;;;;24.52;54.22;100694.44;5072400;28;20042;-74
2023/06/21 10:08:38;;;;;;;5.90;4.82;;;;;;;24.44;54.38;100707.78;5072557;28;20523;-74
2023/06/21 10:11:45;;;;;;;8.52;5.10;;;;;;;24.53;54.02;100706.81;5072573;28;20050;-74
2023/06/21 10:14:50;;;;;;;7.82;5.82;;;;;;;24.88;51.47;100702.94;5072466;28;20040;-74
2023/06/21 10:17:55;;;;;;;6.13;4.97;;;;;;;24.73;52.16;100708.16;5072365;28;20067;-75
2023/06/21 10:21:08;;;;;;;5.35;4.85;;;;;;;24.81;52.44;100705.47;5072378;28;20405;-72
2023/06/21 10:24:13;;;;;;;;;;;;;;;24.99;52.70;100696.44;5072638;28;20500;-72
2023/06/21 10:27:18;;;;;;;6.45;5.55;;;;;;;24.97;50.64;100695.75;5072095;28;19919;-72
2023/06/21 10:30:23;;;;;;;7.05;5.72;;;;;;;25.12;49.72;100710.16;5072005;28;20102;-74
2023/06/21 10:33:30;;;;;;;5.78;5.10;;;;;;;25.11;49.79;100705.78;5071573;28;20046;-73
2023/06/21 10:36:37;;;;;;;7.75;5.43;;;;;;;25.13;50.66;100698.41;5071871;28;20124;-74
2023/06/21 10:39:41;;;;;;;7.70;5.80;;;;;;;25.15;49.54;100696.44;5072214;28;20416;-81
2023/06/21 10:42:45;;;;;;;7.40;5.35;;;;;;;25.18;49.17;100697.94;5071978;28;20543;-73
2023/06/21 10:45:50;;;;;;;5.97;4.78;;;;;;;25.29;49.11;100700.22;5072235;28;20051;-73
2023/06/21 10:48:54;;;;;;;7.20;5.55;;;;;;;25.53;48.68;100702.00;5071924;28;20047;-75
2023/06/21 10:51:57;;;;;;;9.90;6.03;;;;;;;25.66;48.49;100694.25;5071775;28;20139;-74
2023/06/21 10:55:02;;;;;;;7.57;5.43;;;;;;;25.68;48.02;100697.56;5069734;28;20130;-74
2023/06/21 10:58:05;;;;;;;6.05;5.18;;;;;;;25.93;48.58;100694.78;5071539;28;20075;-74
2023/06/21 11:01:09;;;;;;;6.18;4.95;;;;;;;25.74;48.54;100698.72;5071987;28;20528;-74
2023/06/21 11:04:12;;;;;;;6.90;4.97;;;;;;;25.58;48.63;100699.63;5071822;28;20039;-74
2023/06/21 11:07:16;;;;;;;8.75;5.18;;;;;;;25.90;48.46;100701.34;5071775;28;20075;-74
2023/06/21 11:10:49;;;;;;;7.38;5.50;;;;;;;25.93;48.41;100697.47;5071829;28;20090;-74
2023/06/21 11:13:52;;;;;;;6.35;5.22;;;;;;;26.09;48.00;100693.88;5073229;28;20117;-73
2023/06/21 11:17:11;;;;;;;5.90;5.30;;;;;;;26.10;47.91;100707.09;5074833;28;20455;-73
2023/06/21 11:20:19;;;;;;;9.10;6.10;;;;;;;26.15;47.80;100693.97;5075296;28;20067;-73
2023/06/21 11:23:25;;;;;;;6.25;5.13;;;;;;;26.15;48.55;100685.94;5074145;28;20047;-74
2023/06/21 11:26:28;;;;;;;7.20;5.53;;;;;;;26.09;48.64;100673.25;5073516;28;20256;-75
2023/06/21 11:29:35;;;;;;;5.78;5.10;;;;;;;26.19;49.36;100673.84;5073188;28;20055;-74
2023/06/21 11:32:56;;;;;;;6.20;5.05;;;;;;;26.20;48.54;100670.19;5073480;28;20071;-74
2023/06/21 11:36:04;;;;;;;5.70;5.07;;;;;;;26.23;47.81;100673.50;5075283;28;20455;-74
2023/06/21 11:39:08;;;;;;;7.88;4.88;;;;;;;26.28;48.28;100677.31;5075240;28;20040;-74
2023/06/21 11:42:16;;;;;;;6.03;5.25;;;;;;;26.27;48.95;100685.53;5074987;28;20094;-74
2023/06/21 11:45:35;;;;;;;6.95;5.55;;;;;;;26.20;48.79;100680.91;5076709;28;20097;-75
2023/06/21 11:48:39;;;;;;;7.80;4.88;;;;;;;26.30;48.79;100679.81;5074779;28;20117;-71
2023/06/21 11:52:00;;;;;;;6.55;5.00;;;;;;;26.46;47.73;100679.69;5075125;28;20501;-73
2023/06/21 11:55:13;;;;;;;5.88;5.00;;;;;;;26.64;47.29;100685.63;5075194;28;20065;-78
2023/06/21 11:58:17;;;;;;;5.15;4.43;;;;;;;26.71;45.24;100679.50;5074763;28;20040;-75
2023/06/21 12:01:20;;;;;;;5.90;4.78;;;;;;;26.96;44.88;100685.47;5073240;28;20096;-76
2023/06/21 12:04:26;;;;;;;5.05;4.55;;;;;;;27.02;45.65;100666.78;5074959;28;20405;-76
2023/06/21 12:07:30;;;;;;;5.38;4.70;;;;;;;26.98;44.65;100665.47;5074554;28;20047;-76
2023/06/21 12:10:55;;;;;;;5.35;4.50;;;;;;;27.06;44.50;100668.09;5074711;28;20089;-76
2023/06/21 12:13:59;;;;;;;8.68;5.57;;;;;;;27.27;44.95;100677.28;5074427;28;20161;-76
2023/06/21 12:17:04;;;;;;;6.40;5.70;;;;;;;27.22;45.46;100679.66;5074667;28;20039;-75
2023/06/21 12:20:08;;;;;;;6.10;5.43;;;;;;;27.35;45.23;100669.16;5072975;28;20052;-76
2023/06/21 12:23:11;;;;;;;4.97;4.45;;;;;;;27.35;43.75;100669.97;5073291;28;20051;-77
2023/06/21 12:26:15;;;;;;;5.47;4.93;;;;;;;27.45;43.48;100669.69;5074162;28;20464;-78
2023/06/21 12:29:18;;;;;;;6.85;4.82;;;;;;;27.62;43.60;100662.25;5074147;28;20044;-77
2023/06/21 12:32:21;;;;;;;4.80;4.25;;;;;;;27.59;43.73;100667.97;5074085;28;20528;-77
2023/06/21 12:35:25;;;;;;;6.40;5.13;;;;;;;27.49;44.08;100665.59;5073580;28;20055;-77
2023/06/21 12:38:28;;;;;;;5.20;4.63;;;;;;;27.63;43.22;100663.06;5073689;28;20052;-77
2023/06/21 12:41:33;;;;;;;7.78;4.28;;;;;;;27.77;41.98;100665.75;5073984;28;20043;-77
2023/06/21 12:44:36;;;;;;;6.28;4.45;;;;;;;28.10;41.26;100677.88;5074121;28;20047;-76
2023/06/21 12:47:47;;;;;;;6.57;5.15;;;;;;;28.30;41.03;100681.59;5072965;28;20098;-77
2023/06/21 12:50:54;;;;;;;5.15;4.65;;;;;;;27.98;42.53;100683.78;5072723;28;20093;-77
2023/06/21 12:54:00;;;;;;;5.30;4.55;;;;;;;27.79;41.71;100676.31;5073669;28;20066;-77
2023/06/21 12:57:03;;;;;;;6.15;4.38;;;;;;;28.05;41.55;100673.94;5073580;28;20043;-77
2023/06/21 13:00:09;;;;;;;6.72;4.60;;;;;;;28.45;40.28;100674.31;5073053;28;20467;-78
2023/06/21 13:03:15;;;;;;;6.07;5.05;;;;;;;28.56;39.93;100672.13;5073379;28;20154;-79
2023/06/21 13:06:20;;;;;;;5.38;4.72;;;;;;;28.69;39.85;100677.63;5073310;28;20624;-75
2023/06/21 13:09:24;;;;;;;5.38;4.60;;;;;;;28.95;40.14;100671.63;5072234;28;20040;-75
2023/06/21 13:12:28;;;;;;;4.97;4.47;;;;;;;28.87;40.18;100674.44;5072998;28;20421;-77
2023/06/21 13:15:31;;;;;;;4.88;4.25;;;;;;;29.01;39.74;100670.03;5073449;28;20440;-77
2023/06/21 13:18:34;;;;;;;7.35;5.15;;;;;;;29.26;39.62;100665.81;5072308;28;20051;-77
2023/06/21 13:21:38;;;;;;;4.95;4.28;;;;;;;29.18;39.24;100677.56;5073050;28;20242;-75
2023/06/21 13:24:42;;;;;;;5.10;4.60;;;;;;;29.23;38.86;100677.00;5073188;28;20075;-78
2023/06/21 13:27:45;;;;;;;5.22;4.50;;;;;;;29.34;39.46;100680.97;5071816;28;20067;-77
2023/06/21 13:30:49;;;;;;;4.97;4.47;;;;;;;29.44;39.27;100670.66;5072246;28;20485;-76
2023/06/21 13:33:53;;;;;;;5.18;4.57;;;;;;;29.86;37.99;100668.78;5095444;28;20047;-75
2023/06/21 13:36:56;;;;;;;4.97;4.50;;;;;;;29.95;38.19;100672.94;5059115;28;20118;-78
2023/06/21 13:39:59;;;;;;;5.07;4.47;;;;;;;30.08;37.39;100672.97;5070779;28;20050;-81
2023/06/21 13:43:03;;;;;;;5.72;4.68;;;;;;;30.23;37.30;100658.50;5071239;28;20048;-84
2023/06/21 13:46:09;;;;;;;5.97;4.20;;;;;;;30.76;35.93;100656.66;5071586;28;20075;-80
2023/06/21 13:49:23;;;;;;;5.10;4.35;;;;;;;30.64;35.41;100644.00;5072014;28;20063;-80
2023/06/21 13:52:34;;;;;;;6.45;4.97;;;;;;;30.94;35.30;100644.38;5072375;28;20051;-81
2023/06/21 13:55:37;;;;;;;6.00;4.78;;;;;;;30.81;35.70;100651.47;5072660;28;20095;-82
2023/06/21 13:58:41;;;;;;;7.18;5.18;;;;;;;30.39;35.66;100643.78;5072847;28;20085;-82
2023/06/21 14:01:44;;;;;;;6.88;4.85;;;;;;;30.74;35.47;100650.63;5072609;28;20051;-81
2023/06/21 14:04:49;;;;;;;7.70;4.68;;;;;;;31.07;35.58;100638.94;5072609;28;20043;-81
2023/06/21 14:07:52;;;;;;;5.05;4.55;;;;;;;31.19;35.26;100644.53;5072505;28;20043;-82
2023/06/21 14:10:56;;;;;;;7.20;4.80;;;;;;;30.88;35.57;100635.25;5082566;28;20051;-82
2023/06/21 14:14:00;;;;;;;5.90;4.35;;;;;;;31.59;34.81;100620.06;5070346;28;20132;-82
2023/06/21 14:17:10;;;;;;;6.15;3.80;;;;;;;31.68;34.57;100619.59;5071545;28;20038;-78
2023/06/21 14:20:14;;;;;;;5.53;3.67;;;;;;;32.00;34.05;100622.31;5070812;28;20059;-80
2023/06/21 14:23:17;;;;;;;4.85;4.00;;;;;;;33.01;33.51;100617.72;5072070;28;20051;-79
2023/06/21 14:26:20;;;;;;;5.20;4.20;;;;;;;33.91;30.43;100631.38;5071857;28;20052;-81
2023/06/21 14:29:24;;;;;;;5.32;4.10;;;;;;;33.82;29.85;100630.03;5071506;28;20058;-82
2023/06/21 14:32:32;;;;;;;4.75;4.22;;;;;;;35.02;28.25;100612.56;5091041;28;20083;-83
2023/06/21 14:35:40;;;;;;;5.82;4.32;;;;;;;36.56;25.50;100616.22;5070903;28;20173;-83
2023/06/21 14:38:44;;;;;;;5.80;3.90;;;;;;;35.15;27.43;100622.38;5072082;28;20072;-82
2023/06/21 14:41:49;;;;;;;4.88;3.72;;;;;;;32.27;31.45;100628.38;5071284;28;20038;-82
2023/06/21 14:44:52;;;;;;;3.70;3.30;;;;;;;32.75;31.68;100629.66;5072167;28;20047;-82
2023/06/21 14:47:56;;;;;;;4.43;3.85;;;;;;;32.87;31.70;100625.16;5072025;28;20039;-82